createdAt,value
2024-04-09T00:00:54.756Z,748.00
2024-04-09T00:01:54.700Z,745.00
2024-04-09T00:02:54.856Z,747.00
2024-04-09T00:03:54.938Z,744.00
2024-04-09T00:04:54.953Z,751.00
2024-04-09T00:05:54.907Z,750.00
2024-04-09T00:06:54.901Z,749.00
2024-04-09T00:07:54.935Z,746.00
2024-04-09T00:08:55.033Z,748.00
2024-04-09T00:09:55.011Z,751.00
2024-04-09T00:10:55.041Z,752.00
2024-04-09T00:11:55.349Z,741.00
2024-04-09T00:12:55.136Z,745.00
2024-04-09T00:13:55.183Z,742.00
2024-04-09T00:14:55.282Z,761.00
2024-04-09T00:15:55.221Z,752.00
2024-04-09T00:16:55.537Z,755.00
2024-04-09T00:17:55.550Z,753.00
2024-04-09T00:18:55.466Z,754.00
2024-04-09T00:19:55.378Z,750.00
2024-04-09T00:20:55.428Z,736.00
2024-04-09T00:21:55.470Z,752.00
2024-04-09T00:22:55.493Z,748.00
2024-04-09T00:23:55.590Z,756.00
2024-04-09T00:24:55.567Z,746.00
2024-04-09T00:25:55.591Z,760.00
2024-04-09T00:26:55.666Z,748.00
2024-04-09T00:27:55.666Z,741.00
2024-04-09T00:28:55.697Z,755.00
2024-04-09T00:29:55.791Z,749.00
2024-04-09T00:30:55.818Z,753.00
2024-04-09T00:31:55.835Z,744.00
2024-04-09T00:32:55.984Z,744.00
2024-04-09T00:33:56.074Z,756.00
2024-04-09T00:34:55.959Z,750.00
2024-04-09T00:35:55.996Z,757.00
2024-04-09T00:36:56.027Z,747.00
2024-04-09T00:37:56.067Z,759.00
2024-04-09T00:38:56.164Z,748.00
2024-04-09T00:39:56.163Z,747.00
2024-04-09T00:40:56.187Z,747.00
2024-04-09T00:41:56.303Z,747.00
2024-04-09T00:42:56.282Z,752.00
2024-04-09T00:43:56.333Z,754.00
2024-04-09T00:44:56.433Z,752.00
2024-04-09T00:45:56.407Z,747.00
2024-04-09T00:46:56.450Z,752.00
2024-04-09T00:47:56.616Z,734.00
2024-04-09T00:48:56.576Z,751.00
2024-04-09T00:49:56.607Z,741.00
2024-04-09T00:50:56.633Z,751.00
2024-04-09T00:51:56.700Z,748.00
2024-04-09T00:52:56.712Z,748.00
2024-04-09T00:53:56.781Z,742.00
2024-04-09T00:54:56.789Z,741.00
2024-04-09T00:55:56.832Z,740.00
2024-04-09T00:56:56.894Z,740.00
2024-04-09T00:57:56.932Z,739.00
2024-04-09T00:58:56.963Z,753.00
2024-04-09T00:59:57.095Z,742.00
2024-04-09T01:00:57.092Z,735.00
2024-04-09T01:01:57.078Z,730.00
2024-04-09T01:02:57.249Z,734.00
2024-04-09T01:03:57.302Z,737.00
2024-04-09T01:04:57.251Z,740.00
2024-04-09T01:05:57.290Z,748.00
2024-04-09T01:06:57.329Z,731.00
2024-04-09T01:07:57.378Z,724.00
2024-04-09T01:08:57.471Z,739.00
2024-04-09T01:09:57.425Z,724.00
2024-04-09T01:10:57.506Z,734.00
2024-04-09T01:11:57.594Z,736.00
2024-04-09T01:12:57.604Z,738.00
2024-04-09T01:13:57.604Z,737.00
2024-04-09T01:14:57.668Z,745.00
2024-04-09T01:15:57.684Z,732.00
2024-04-09T01:16:57.760Z,739.00
2024-04-09T01:17:57.900Z,740.00
2024-04-09T01:18:57.908Z,740.00
2024-04-09T01:19:57.869Z,738.00
2024-04-09T01:20:58.001Z,739.00
2024-04-09T01:21:57.971Z,736.00
2024-04-09T01:22:58.027Z,735.00
2024-04-09T01:23:58.075Z,744.00
2024-04-09T01:24:58.129Z,730.00
2024-04-09T01:25:58.151Z,727.00
2024-04-09T01:26:58.241Z,714.00
2024-04-09T01:27:58.223Z,726.00
2024-04-09T01:28:58.255Z,731.00
2024-04-09T01:29:58.346Z,722.00
2024-04-09T01:30:58.351Z,726.00
2024-04-09T01:31:58.389Z,732.00
2024-04-09T01:32:58.594Z,721.00
2024-04-09T01:33:58.744Z,731.00
2024-04-09T01:34:58.544Z,730.00
2024-04-09T01:35:58.627Z,726.00
2024-04-09T01:36:58.639Z,735.00
2024-04-09T01:37:58.686Z,729.00
2024-04-09T01:38:58.747Z,727.00
2024-04-09T01:39:58.784Z,721.00
2024-04-09T01:40:58.834Z,724.00
2024-04-09T01:41:58.889Z,729.00
2024-04-09T01:42:58.922Z,725.00
2024-04-09T01:43:58.957Z,723.00
2024-04-09T01:44:59.004Z,720.00
2024-04-09T01:45:59.045Z,726.00
2024-04-09T01:46:59.120Z,724.00
2024-04-09T01:47:59.187Z,730.00
2024-04-09T01:48:59.239Z,729.00
2024-04-09T01:49:59.252Z,733.00
2024-04-09T01:50:59.290Z,725.00
2024-04-09T01:51:59.300Z,724.00
2024-04-09T01:52:59.345Z,728.00
2024-04-09T01:53:59.394Z,703.00
2024-04-09T01:54:59.444Z,725.00
2024-04-09T01:55:59.479Z,720.00
2024-04-09T01:56:59.540Z,710.00
2024-04-09T01:57:59.599Z,710.00
2024-04-09T01:58:59.626Z,707.00
2024-04-09T01:59:59.696Z,713.00
2024-04-09T02:00:59.764Z,709.00
2024-04-09T02:01:59.774Z,715.00
2024-04-09T02:02:59.925Z,705.00
2024-04-09T02:03:59.963Z,715.00
2024-04-09T02:04:59.911Z,710.00
2024-04-09T02:06:00.078Z,709.00
2024-04-09T02:07:00.006Z,707.00
2024-04-09T02:08:00.064Z,702.00
2024-04-09T02:09:00.135Z,712.00
2024-04-09T02:10:00.173Z,707.00
2024-04-09T02:11:00.187Z,710.00
2024-04-09T02:12:00.408Z,708.00
2024-04-09T02:13:00.305Z,710.00
2024-04-09T02:14:00.334Z,708.00
2024-04-09T02:15:00.485Z,717.00
2024-04-09T02:16:00.432Z,708.00
2024-04-09T02:17:00.470Z,707.00
2024-04-09T02:18:00.710Z,705.00
2024-04-09T02:19:00.590Z,707.00
2024-04-09T02:20:00.635Z,696.00
2024-04-09T02:21:00.769Z,700.00
2024-04-09T02:22:00.740Z,702.00
2024-04-09T02:23:00.795Z,704.00
2024-04-09T02:24:00.855Z,704.00
2024-04-09T02:25:00.912Z,701.00
2024-04-09T02:26:00.941Z,707.00
2024-04-09T02:27:01.020Z,706.00
2024-04-09T02:28:01.049Z,707.00
2024-04-09T02:29:01.099Z,702.00
2024-04-09T02:30:01.260Z,702.00
2024-04-09T02:31:01.203Z,709.00
2024-04-09T02:32:01.382Z,701.00
2024-04-09T02:33:01.341Z,710.00
2024-04-09T02:34:01.399Z,709.00
2024-04-09T02:35:01.408Z,696.00
2024-04-09T02:36:01.493Z,715.00
2024-04-09T02:37:01.508Z,708.00
2024-04-09T02:38:01.600Z,701.00
2024-04-09T02:39:01.647Z,703.00
2024-04-09T02:40:01.791Z,701.00
2024-04-09T02:41:01.778Z,698.00
2024-04-09T02:42:01.830Z,701.00
2024-04-09T02:43:01.793Z,698.00
2024-04-09T02:44:01.859Z,693.00
2024-04-09T02:45:01.929Z,696.00
2024-04-09T02:46:02.003Z,703.00
2024-04-09T02:47:02.150Z,695.00
2024-04-09T02:48:02.191Z,702.00
2024-04-09T02:49:02.283Z,698.00
2024-04-09T02:50:02.174Z,699.00
2024-04-09T02:51:02.362Z,706.00
2024-04-09T02:52:02.290Z,700.00
2024-04-09T02:53:02.359Z,712.00
2024-04-09T02:54:02.410Z,702.00
2024-04-09T02:55:02.464Z,701.00
2024-04-09T02:56:02.500Z,701.00
2024-04-09T02:57:02.610Z,703.00
2024-04-09T02:58:02.616Z,683.00
2024-04-09T02:59:02.681Z,699.00
2024-04-09T03:00:02.763Z,707.00
2024-04-09T03:01:02.823Z,701.00
2024-04-09T03:02:02.900Z,700.00
2024-04-09T03:03:02.960Z,700.00
2024-04-09T03:04:03.226Z,712.00
2024-04-09T03:05:03.011Z,708.00
2024-04-09T03:06:03.101Z,702.00
2024-04-09T03:07:03.130Z,697.00
2024-04-09T03:08:03.169Z,707.00
2024-04-09T03:09:03.275Z,701.00
2024-04-09T03:10:03.259Z,693.00
2024-04-09T03:11:03.332Z,700.00
2024-04-09T03:12:03.492Z,701.00
2024-04-09T03:13:03.486Z,705.00
2024-04-09T03:14:03.491Z,698.00
2024-04-09T03:15:03.587Z,706.00
2024-04-09T03:16:03.614Z,699.00
2024-04-09T03:17:03.631Z,698.00
2024-04-09T03:18:03.752Z,702.00
2024-04-09T03:19:03.756Z,700.00
2024-04-09T03:20:03.858Z,703.00
2024-04-09T03:21:03.849Z,700.00
2024-04-09T03:22:03.908Z,704.00
2024-04-09T03:23:03.964Z,708.00
2024-04-09T03:24:04.194Z,696.00
2024-04-09T03:25:04.048Z,709.00
2024-04-09T03:26:04.112Z,711.00
2024-04-09T03:27:04.206Z,698.00
2024-04-09T03:28:04.215Z,702.00
2024-04-09T03:29:04.256Z,697.00
2024-04-09T03:30:04.382Z,698.00
2024-04-09T03:31:04.392Z,697.00
2024-04-09T03:32:04.463Z,706.00
2024-04-09T03:33:04.652Z,699.00
2024-04-09T03:34:04.740Z,707.00
2024-04-09T03:35:04.634Z,695.00
2024-04-09T03:36:04.832Z,708.00
2024-04-09T03:37:04.712Z,694.00
2024-04-09T03:38:04.781Z,698.00
2024-04-09T03:39:04.886Z,699.00
2024-04-09T03:40:04.886Z,699.00
2024-04-09T03:41:04.966Z,701.00
2024-04-09T03:42:05.027Z,689.00
2024-04-09T03:43:05.077Z,698.00
2024-04-09T03:44:05.155Z,698.00
2024-04-09T03:45:05.228Z,699.00
2024-04-09T03:46:05.259Z,706.00
2024-04-09T03:47:05.302Z,691.00
2024-04-09T03:48:05.451Z,693.00
2024-04-09T03:49:05.584Z,705.00
2024-04-09T03:50:05.476Z,693.00
2024-04-09T03:51:05.547Z,695.00
2024-04-09T03:52:05.590Z,689.00
2024-04-09T03:53:05.628Z,691.00
2024-04-09T03:54:05.791Z,692.00
2024-04-09T03:55:05.739Z,690.00
2024-04-09T03:56:05.782Z,694.00
2024-04-09T03:57:05.883Z,691.00
2024-04-09T03:58:05.909Z,692.00
2024-04-09T03:59:05.950Z,693.00
2024-04-09T04:00:06.131Z,692.00
2024-04-09T04:01:09.054Z,703.00
2024-04-09T04:02:06.130Z,697.00
2024-04-09T04:03:06.158Z,692.00
2024-04-09T04:04:06.287Z,712.00
2024-04-09T04:05:06.106Z,698.00
2024-04-09T04:06:06.129Z,699.00
2024-04-09T04:07:06.109Z,693.00
2024-04-09T04:08:06.119Z,689.00
2024-04-09T04:09:06.173Z,697.00
2024-04-09T04:10:07.961Z,694.00
2024-04-09T04:11:06.132Z,695.00
2024-04-09T04:12:06.120Z,696.00
2024-04-09T04:13:06.105Z,697.00
2024-04-09T04:14:06.113Z,695.00
2024-04-09T04:15:06.123Z,707.00
2024-04-09T04:16:06.117Z,701.00
2024-04-09T04:17:06.227Z,692.00
2024-04-09T04:18:06.185Z,700.00
2024-04-09T04:19:06.180Z,689.00
2024-04-09T04:20:06.118Z,691.00
2024-04-09T04:21:08.879Z,691.00
2024-04-09T04:22:06.121Z,692.00
2024-04-09T04:23:06.173Z,694.00
2024-04-09T04:24:06.155Z,694.00
2024-04-09T04:25:06.127Z,699.00
2024-04-09T04:26:06.129Z,707.00
2024-04-09T04:27:06.215Z,715.00
2024-04-09T04:28:06.140Z,696.00
2024-04-09T04:29:06.128Z,702.00
2024-04-09T04:30:06.208Z,702.00
2024-04-09T04:31:06.132Z,695.00
2024-04-09T04:32:13.431Z,600.00
2024-04-09T04:33:13.502Z,600.00
2024-04-09T04:34:13.477Z,600.00
2024-04-09T04:35:13.392Z,600.00
2024-04-09T04:36:16.363Z,600.00
2024-04-09T04:37:13.400Z,600.00
2024-04-09T04:38:13.388Z,600.00
2024-04-09T04:39:13.420Z,600.00
2024-04-09T04:40:13.370Z,600.00
2024-04-09T04:41:13.445Z,600.00
2024-04-09T04:42:13.475Z,600.00
2024-04-09T04:43:13.407Z,602.00
2024-04-09T04:44:13.391Z,604.00
2024-04-09T04:45:13.457Z,604.00
2024-04-09T04:46:13.399Z,601.00
2024-04-09T04:47:13.383Z,602.00
2024-04-09T04:48:13.637Z,604.00
2024-04-09T04:49:13.588Z,605.00
2024-04-09T04:50:13.406Z,601.00
2024-04-09T04:51:13.460Z,605.00
2024-04-09T04:52:13.411Z,605.00
2024-04-09T04:53:13.406Z,602.00
2024-04-09T04:54:13.448Z,603.00
2024-04-09T04:55:13.430Z,601.00
2024-04-09T04:56:13.417Z,607.00
2024-04-09T04:57:13.503Z,606.00
2024-04-09T04:58:13.432Z,606.00
2024-04-09T04:59:13.406Z,607.00
2024-04-09T05:00:13.432Z,608.00
2024-04-09T05:01:13.452Z,606.00
2024-04-09T05:02:13.478Z,608.00
2024-04-09T05:03:13.650Z,604.00
2024-04-09T05:04:13.538Z,605.00
2024-04-09T05:05:13.422Z,606.00
2024-04-09T05:06:13.487Z,608.00
2024-04-09T05:07:13.448Z,604.00
2024-04-09T05:08:13.439Z,608.00
2024-04-09T05:09:13.466Z,600.00
2024-04-09T05:10:13.447Z,605.00
2024-04-09T05:11:13.455Z,604.00
2024-04-09T05:12:13.459Z,606.00
2024-04-09T05:13:13.463Z,601.00
2024-04-09T05:14:13.454Z,606.00
2024-04-09T05:15:13.482Z,601.00
2024-04-09T05:16:13.456Z,606.00
2024-04-09T05:17:13.426Z,606.00
2024-04-09T05:18:13.674Z,602.00
2024-04-09T05:19:13.656Z,607.00
2024-04-09T05:20:13.583Z,603.00
2024-04-09T05:21:13.647Z,604.00
2024-04-09T05:22:13.701Z,606.00
2024-04-09T05:23:13.702Z,603.00
2024-04-09T05:24:13.800Z,603.00
2024-04-09T05:25:13.799Z,608.00
2024-04-09T05:26:13.834Z,605.00
2024-04-09T05:27:13.907Z,604.00
2024-04-09T05:28:14.059Z,602.00
2024-04-09T05:29:14.017Z,604.00
2024-04-09T05:30:14.127Z,605.00
2024-04-09T05:31:14.082Z,601.00
2024-04-09T05:32:14.193Z,603.00
2024-04-09T05:33:14.232Z,601.00
2024-04-09T05:34:14.275Z,605.00
2024-04-09T05:35:14.257Z,603.00
2024-04-09T05:36:14.365Z,602.00
2024-04-09T05:37:14.343Z,608.00
2024-04-09T05:38:14.428Z,605.00
2024-04-09T05:39:14.469Z,606.00
2024-04-09T05:40:14.540Z,602.00
2024-04-09T05:41:14.566Z,604.00
2024-04-09T05:42:14.606Z,606.00
2024-04-09T05:43:15.496Z,610.00
2024-04-09T05:44:14.684Z,613.00
2024-04-09T05:45:14.824Z,619.00
2024-04-09T05:46:14.684Z,630.00
2024-04-09T05:47:14.756Z,642.00
2024-04-09T05:48:15.198Z,649.00
2024-04-09T05:49:14.911Z,659.00
2024-04-09T05:50:14.966Z,674.00
2024-04-09T05:51:14.819Z,717.00
2024-04-09T05:52:14.757Z,754.00
2024-04-09T05:53:14.761Z,773.00
2024-04-09T05:54:14.814Z,819.00
2024-04-09T05:55:14.821Z,844.00
2024-04-09T05:56:14.843Z,853.00
2024-04-09T05:57:14.936Z,856.00
2024-04-09T05:58:14.981Z,878.00
2024-04-09T05:59:14.949Z,893.00
2024-04-09T06:01:15.040Z,900.00
2024-04-09T06:02:14.992Z,904.00
2024-04-09T06:03:15.058Z,922.00
2024-04-09T06:04:17.159Z,910.00
2024-04-09T06:05:14.989Z,918.00
2024-04-09T06:06:15.038Z,936.00
2024-04-09T06:07:14.983Z,936.00
2024-04-09T06:08:15.017Z,946.00
2024-04-09T06:09:15.059Z,954.00
2024-04-09T06:10:15.026Z,962.00
2024-04-09T06:11:15.119Z,960.00
2024-04-09T06:12:15.065Z,956.00
2024-04-09T06:13:15.081Z,962.00
2024-04-09T06:14:15.108Z,965.00
2024-04-09T06:15:15.167Z,972.00
2024-04-09T06:16:15.122Z,969.00
2024-04-09T06:17:15.162Z,974.00
2024-04-09T06:18:15.440Z,970.00
2024-04-09T06:19:16.133Z,979.00
2024-04-09T06:20:15.243Z,982.00
2024-04-09T06:21:15.228Z,979.00
2024-04-09T06:22:15.220Z,983.00
2024-04-09T06:23:15.249Z,993.00
2024-04-09T06:24:15.301Z,990.00
2024-04-09T06:25:15.270Z,989.00
2024-04-09T06:26:15.323Z,995.00
2024-04-09T06:27:15.412Z,988.00
2024-04-09T06:28:15.567Z,991.00
2024-04-09T06:29:15.532Z,998.00
2024-04-09T06:30:15.447Z,995.00
2024-04-09T06:31:15.414Z,1001.00
2024-04-09T06:32:15.570Z,1006.00
2024-04-09T06:33:16.096Z,1004.00
2024-04-09T06:34:15.591Z,1005.00
2024-04-09T06:35:15.512Z,1007.00
2024-04-09T06:36:25.082Z,1003.00
2024-04-09T06:37:16.659Z,1004.00
2024-04-09T06:38:15.542Z,1006.00
2024-04-09T06:39:15.542Z,1016.00
2024-04-09T06:40:15.530Z,1066.00
2024-04-09T06:41:15.569Z,1103.00
2024-04-09T06:42:15.587Z,1101.00
2024-04-09T06:43:15.549Z,1097.00
2024-04-09T06:44:15.541Z,1112.00
2024-04-09T06:45:15.645Z,1126.00
2024-04-09T06:46:15.559Z,1120.00
2024-04-09T06:47:15.628Z,1138.00
2024-04-09T06:48:15.706Z,1141.00
2024-04-09T06:49:16.258Z,1151.00
2024-04-09T06:50:15.559Z,1160.00
2024-04-09T06:51:15.609Z,1168.00
2024-04-09T06:52:15.568Z,1177.00
2024-04-09T06:53:15.549Z,1191.00
2024-04-09T06:54:15.890Z,1200.00
2024-04-09T06:55:15.553Z,1202.00
2024-04-09T06:56:15.572Z,1232.00
2024-04-09T06:57:15.664Z,1254.00
2024-04-09T06:58:15.550Z,1262.00
2024-04-09T06:59:15.561Z,1266.00
2024-04-09T07:00:15.609Z,1273.00
2024-04-09T07:01:15.580Z,1296.00
2024-04-09T07:02:15.575Z,1301.00
2024-04-09T07:03:15.761Z,1305.00
2024-04-09T07:04:16.400Z,1326.00
2024-04-09T07:05:15.594Z,1332.00
2024-04-09T07:06:15.648Z,1338.00
2024-04-09T07:07:15.656Z,1352.00
2024-04-09T07:08:15.625Z,1366.00
2024-04-09T07:09:15.697Z,1368.00
2024-04-09T07:10:15.696Z,1381.00
2024-04-09T07:11:15.737Z,1387.00
2024-04-09T07:12:15.764Z,1399.00
2024-04-09T07:13:15.711Z,1399.00
2024-04-09T07:14:15.706Z,1412.00
2024-04-09T07:15:15.739Z,1416.00
2024-04-09T07:16:15.707Z,1416.00
2024-04-09T07:17:15.745Z,1429.00
2024-04-09T07:18:15.836Z,1437.00
2024-04-09T07:19:15.741Z,1450.00
2024-04-09T07:20:15.733Z,1451.00
2024-04-09T07:21:15.758Z,1453.00
2024-04-09T07:22:15.771Z,1458.00
2024-04-09T07:23:15.827Z,1459.00
2024-04-09T07:24:15.853Z,1445.00
2024-04-09T07:25:15.822Z,1426.00
2024-04-09T07:26:15.908Z,1413.00
2024-04-09T07:27:15.853Z,1413.00
2024-04-09T07:28:15.847Z,1424.00
2024-04-09T07:29:15.849Z,1428.00
2024-04-09T07:30:15.954Z,1411.00
2024-04-09T07:31:15.941Z,1392.00
2024-04-09T07:32:15.892Z,1381.00
2024-04-09T07:33:16.051Z,1371.00
2024-04-09T07:34:15.915Z,1375.00
2024-04-09T07:35:15.949Z,1361.00
2024-04-09T07:36:16.166Z,1347.00
2024-04-09T07:37:15.962Z,1339.00
2024-04-09T07:38:15.963Z,1331.00
2024-04-09T07:39:16.119Z,1285.00
2024-04-09T07:40:16.007Z,1195.00
2024-04-09T07:41:16.041Z,1121.00
2024-04-09T07:42:16.091Z,1034.00
2024-04-09T07:43:16.074Z,959.00
2024-04-09T07:44:16.118Z,901.00
2024-04-09T07:45:16.211Z,857.00
2024-04-09T07:46:16.160Z,822.00
2024-04-09T07:47:16.228Z,784.00
2024-04-09T07:48:16.339Z,744.00
2024-04-09T07:49:16.384Z,703.00
2024-04-09T07:50:16.302Z,697.00
2024-04-09T07:51:16.341Z,663.00
2024-04-09T07:52:16.352Z,655.00
2024-04-09T07:53:16.374Z,650.00
2024-04-09T07:54:16.430Z,637.00
2024-04-09T07:55:16.449Z,631.00
2024-04-09T07:56:16.464Z,626.00
2024-04-09T07:57:16.530Z,622.00
2024-04-09T07:58:16.529Z,616.00
2024-04-09T07:59:16.598Z,613.00
2024-04-09T08:00:16.631Z,608.00
2024-04-09T08:01:16.671Z,600.00
2024-04-09T08:02:16.670Z,600.00
2024-04-09T08:03:16.794Z,602.00
2024-04-09T08:04:16.952Z,600.00
2024-04-09T08:05:16.895Z,603.00
2024-04-09T08:06:16.953Z,601.00
2024-04-09T08:07:17.016Z,602.00
2024-04-09T08:08:17.014Z,604.00
2024-04-09T08:09:17.364Z,605.00
2024-04-09T08:10:17.040Z,601.00
2024-04-09T08:11:17.179Z,602.00
2024-04-09T08:12:17.224Z,604.00
2024-04-09T08:13:17.029Z,603.00
2024-04-09T08:14:16.999Z,602.00
2024-04-09T08:15:17.119Z,605.00
2024-04-09T08:16:17.058Z,603.00
2024-04-09T08:17:17.088Z,601.00
2024-04-09T08:18:17.198Z,603.00
2024-04-09T08:19:17.262Z,606.00
2024-04-09T08:20:17.359Z,602.00
2024-04-09T08:21:18.655Z,610.00
2024-04-09T08:22:17.169Z,609.00
2024-04-09T08:23:17.147Z,611.00
2024-04-09T08:24:17.297Z,622.00
2024-04-09T08:25:17.190Z,632.00
2024-04-09T08:26:17.171Z,644.00
2024-04-09T08:27:17.198Z,648.00
2024-04-09T08:28:17.157Z,657.00
2024-04-09T08:29:17.696Z,665.00
2024-04-09T08:30:17.220Z,672.00
2024-04-09T08:31:17.166Z,683.00
2024-04-09T08:32:17.221Z,696.00
2024-04-09T08:33:17.284Z,708.00
2024-04-09T08:34:17.752Z,711.00
2024-04-09T08:35:17.192Z,713.00
2024-04-09T08:36:17.288Z,739.00
2024-04-09T08:37:17.247Z,738.00
2024-04-09T08:38:17.411Z,743.00
2024-04-09T08:39:17.501Z,751.00
2024-04-09T08:40:17.347Z,750.00
2024-04-09T08:41:17.199Z,755.00
2024-04-09T08:42:17.214Z,751.00
2024-04-09T08:43:17.429Z,759.00
2024-04-09T08:44:17.188Z,764.00
2024-04-09T08:46:17.306Z,882.00
2024-04-09T08:47:17.225Z,911.00
2024-04-09T08:48:17.576Z,947.00
2024-04-09T08:49:17.851Z,958.00
2024-04-09T08:50:18.078Z,963.00
2024-04-09T08:51:17.821Z,963.00
2024-04-09T08:52:17.231Z,941.00
2024-04-09T08:53:17.198Z,939.00
2024-04-09T08:54:17.265Z,924.00
2024-04-09T08:55:21.157Z,909.00
2024-04-09T08:56:17.202Z,909.00
2024-04-09T08:57:17.256Z,910.00
2024-04-09T08:58:17.205Z,910.00
2024-04-09T08:59:17.614Z,914.00
2024-04-09T09:00:17.212Z,923.00
2024-04-09T09:01:17.364Z,926.00
2024-04-09T09:02:17.207Z,928.00
2024-04-09T09:03:17.436Z,925.00
2024-04-09T09:04:17.398Z,916.00
2024-04-09T09:05:17.310Z,901.00
2024-04-09T09:06:17.314Z,925.00
2024-04-09T09:07:17.233Z,935.00
2024-04-09T09:08:17.234Z,1013.00
2024-04-09T09:09:17.672Z,975.00
2024-04-09T09:10:17.234Z,957.00
2024-04-09T09:11:17.652Z,955.00
2024-04-09T09:12:17.445Z,943.00
2024-04-09T09:13:17.502Z,964.00
2024-04-09T09:14:17.482Z,958.00
2024-04-09T09:15:17.659Z,967.00
2024-04-09T09:16:17.668Z,985.00
2024-04-09T09:17:17.660Z,1006.00
2024-04-09T09:18:17.773Z,1020.00
2024-04-09T09:19:17.861Z,1024.00
2024-04-09T09:20:18.068Z,1031.00
2024-04-09T09:21:17.930Z,1037.00
2024-04-09T09:22:17.925Z,1027.00
2024-04-09T09:23:17.993Z,1030.00
2024-04-09T09:24:18.079Z,1017.00
2024-04-09T09:25:18.084Z,1031.00
2024-04-09T09:26:18.658Z,1044.00
2024-04-09T09:27:18.231Z,1050.00
2024-04-09T09:28:18.234Z,1042.00
2024-04-09T09:29:18.628Z,1040.00
2024-04-09T09:30:18.392Z,1051.00
2024-04-09T09:31:18.466Z,1049.00
2024-04-09T09:32:18.502Z,1051.00
2024-04-09T09:33:18.536Z,1084.00
2024-04-09T09:34:18.542Z,1091.00
2024-04-09T09:35:18.586Z,1137.00
2024-04-09T09:36:18.639Z,1150.00
2024-04-09T09:37:18.676Z,1174.00
2024-04-09T09:38:18.712Z,1192.00
2024-04-09T09:39:18.803Z,1198.00
2024-04-09T09:40:18.792Z,1210.00
2024-04-09T09:41:18.799Z,1221.00
2024-04-09T09:42:18.841Z,1236.00
2024-04-09T09:43:18.930Z,1251.00
2024-04-09T09:44:18.879Z,1265.00
2024-04-09T09:45:18.929Z,1280.00
2024-04-09T09:46:18.904Z,1291.00
2024-04-09T09:47:18.947Z,1308.00
2024-04-09T09:48:19.082Z,1321.00
2024-04-09T09:49:20.226Z,1338.00
2024-04-09T09:50:19.749Z,1343.00
2024-04-09T09:51:19.099Z,1357.00
2024-04-09T09:52:18.961Z,1376.00
2024-04-09T09:53:19.197Z,1381.00
2024-04-09T09:54:19.389Z,1395.00
2024-04-09T09:55:19.113Z,1413.00
2024-04-09T09:56:19.003Z,1423.00
2024-04-09T09:57:19.102Z,1434.00
2024-04-09T09:58:19.021Z,1451.00
2024-04-09T09:59:19.033Z,1464.00
2024-04-09T10:00:19.051Z,1476.00
2024-04-09T10:01:19.301Z,1481.00
2024-04-09T10:02:19.050Z,1492.00
2024-04-09T10:03:19.151Z,1504.00
2024-04-09T10:04:19.468Z,1520.00
2024-04-09T10:05:19.183Z,1527.00
2024-04-09T10:06:19.256Z,1531.00
2024-04-09T10:07:19.152Z,1559.00
2024-04-09T10:08:19.148Z,1574.00
2024-04-09T10:09:19.222Z,1588.00
2024-04-09T10:10:19.182Z,1597.00
2024-04-09T10:11:19.274Z,1609.00
2024-04-09T10:12:19.281Z,1624.00
2024-04-09T10:13:19.242Z,1642.00
2024-04-09T10:14:19.250Z,1650.00
2024-04-09T10:15:19.443Z,1681.00
2024-04-09T10:16:19.372Z,1682.00
2024-04-09T10:17:19.474Z,1696.00
2024-04-09T10:18:19.729Z,1706.00
2024-04-09T10:19:19.615Z,1715.00
2024-04-09T10:20:19.622Z,1724.00
2024-04-09T10:21:19.692Z,1735.00
2024-04-09T10:22:19.741Z,1735.00
2024-04-09T10:23:19.793Z,1730.00
2024-04-09T10:24:20.164Z,1735.00
2024-04-09T10:25:19.951Z,1747.00
2024-04-09T10:26:19.985Z,1751.00
2024-04-09T10:27:20.101Z,1762.00
2024-04-09T10:28:20.179Z,1764.00
2024-04-09T10:29:20.703Z,1763.00
2024-04-09T10:30:20.277Z,1768.00
2024-04-09T10:31:20.313Z,1756.00
2024-04-09T10:32:20.359Z,1755.00
2024-04-09T10:33:20.442Z,1744.00
2024-04-09T10:34:28.045Z,1721.00
2024-04-09T10:35:20.363Z,1722.00
2024-04-09T10:36:20.443Z,1723.00
2024-04-09T10:37:20.362Z,1723.00
2024-04-09T10:38:20.391Z,1717.00
2024-04-09T10:39:20.467Z,1724.00
2024-04-09T10:40:20.374Z,1728.00
2024-04-09T10:41:20.367Z,1727.00
2024-04-09T10:42:20.390Z,1719.00
2024-04-09T10:43:20.366Z,1714.00
2024-04-09T10:44:20.691Z,1716.00
2024-04-09T10:45:20.412Z,1714.00
2024-04-09T10:46:20.527Z,1704.00
2024-04-09T10:47:20.487Z,1702.00
2024-04-09T10:48:20.477Z,1614.00
2024-04-09T10:49:20.798Z,1571.00
2024-04-09T10:50:20.494Z,1529.00
2024-04-09T10:51:22.601Z,1472.00
2024-04-09T10:52:20.386Z,1440.00
2024-04-09T10:53:20.416Z,1420.00
2024-04-09T10:54:20.405Z,1368.00
2024-04-09T10:55:20.376Z,1314.00
2024-04-09T10:56:20.380Z,1300.00
2024-04-09T10:57:21.607Z,1262.00
2024-04-09T10:58:20.388Z,1236.00
2024-04-09T10:59:20.420Z,1207.00
2024-04-09T11:00:20.438Z,1193.00
2024-04-09T11:01:20.411Z,1167.00
2024-04-09T11:02:20.433Z,1077.00
2024-04-09T11:03:22.659Z,922.00
2024-04-09T11:04:20.864Z,789.00
2024-04-09T11:05:20.445Z,685.00
2024-04-09T11:06:20.415Z,652.00
2024-04-09T11:07:20.399Z,641.00
2024-04-09T11:08:20.405Z,605.00
2024-04-09T11:09:20.459Z,598.00
2024-04-09T11:10:20.515Z,604.00
2024-04-09T11:11:20.478Z,610.00
2024-04-09T11:12:20.447Z,599.00
2024-04-09T11:13:20.397Z,583.00
2024-04-09T11:14:20.402Z,582.00
2024-04-09T11:15:20.525Z,578.00
2024-04-09T11:16:20.402Z,596.00
2024-04-09T11:17:20.583Z,599.00
2024-04-09T11:18:20.654Z,600.00
2024-04-09T11:19:20.537Z,610.00
2024-04-09T11:20:20.436Z,608.00
2024-04-09T11:21:20.471Z,612.00
2024-04-09T11:22:20.416Z,613.00
2024-04-09T11:23:20.412Z,621.00
2024-04-09T11:24:20.715Z,625.00
2024-04-09T11:25:22.310Z,619.00
2024-04-09T11:26:20.428Z,612.00
2024-04-09T11:27:20.461Z,606.00
2024-04-09T11:28:20.419Z,601.00
2024-04-09T11:29:20.435Z,600.00
2024-04-09T11:30:20.482Z,599.00
2024-04-09T11:31:22.355Z,600.00
2024-04-09T11:32:20.419Z,605.00
2024-04-09T11:33:20.627Z,603.00
2024-04-09T11:34:20.498Z,601.00
2024-04-09T11:35:20.495Z,607.00
2024-04-09T11:36:27.529Z,601.00
2024-04-09T11:37:21.985Z,601.00
2024-04-09T11:38:20.431Z,602.00
2024-04-09T11:39:20.482Z,602.00
2024-04-09T11:40:20.453Z,602.00
2024-04-09T11:41:20.435Z,603.00
2024-04-09T11:42:20.514Z,601.00
2024-04-09T11:43:20.454Z,604.00
2024-04-09T11:44:20.448Z,610.00
2024-04-09T11:45:20.453Z,603.00
2024-04-09T11:46:20.446Z,609.00
2024-04-09T11:47:20.523Z,608.00
2024-04-09T11:48:20.570Z,607.00
2024-04-09T11:49:20.512Z,603.00
2024-04-09T11:50:20.471Z,601.00
2024-04-09T11:51:20.459Z,610.00
2024-04-09T11:52:20.479Z,608.00
2024-04-09T11:53:22.498Z,602.00
2024-04-09T11:54:20.528Z,606.00
2024-04-09T11:55:22.581Z,609.00
2024-04-09T11:56:20.472Z,609.00
2024-04-09T11:57:20.524Z,609.00
2024-04-09T11:58:20.476Z,610.00
2024-04-09T11:59:20.477Z,608.00
2024-04-09T12:00:20.536Z,611.00
2024-04-09T12:01:20.602Z,606.00
2024-04-09T12:02:20.531Z,611.00
2024-04-09T12:03:20.550Z,608.00
2024-04-09T12:04:20.614Z,612.00
2024-04-09T12:05:20.519Z,611.00
2024-04-09T12:06:20.505Z,605.00
2024-04-09T12:07:20.532Z,615.00
2024-04-09T12:08:20.497Z,607.00
2024-04-09T12:09:20.577Z,616.00
2024-04-09T12:10:20.481Z,615.00
2024-04-09T12:11:22.424Z,608.00
2024-04-09T12:12:20.541Z,617.00
2024-04-09T12:13:20.493Z,617.00
2024-04-09T12:14:20.540Z,619.00
2024-04-09T12:15:20.757Z,614.00
2024-04-09T12:16:20.495Z,613.00
2024-04-09T12:17:22.032Z,615.00
2024-04-09T12:18:20.629Z,616.00
2024-04-09T12:19:20.566Z,614.00
2024-04-09T12:20:20.831Z,616.00
2024-04-09T12:21:20.589Z,619.00
2024-04-09T12:22:20.539Z,622.00
2024-04-09T12:23:22.025Z,623.00
2024-04-09T12:24:20.681Z,626.00
2024-04-09T12:25:20.650Z,643.00